sensor_id;sensor_type;location;lat;lon;timestamp;temperature;humidity
28438;DHT22;15667;52.376;9.708;2023-02-28T00:01:14;2.40;99.90
28438;DHT22;15667;52.376;9.708;2023-02-28T00:03:41;2.90;99.90
28438;DHT22;15667;52.376;9.708;2023-02-28T00:06:07;2.40;99.90
28438;DHT22;15667;52.376;9.708;2023-02-28T00:08:35;2.30;99.90
28438;DHT22;15667;52.376;9.708;2023-02-28T00:11:06;2.30;99.90
28438;DHT22;15667;52.376;9.708;2023-02-28T00:13:34;2.40;99.90
28438;DHT22;15667;52.376;9.708;2023-02-28T00:16:08;2.30;99.90
28438;DHT22;15667;52.376;9.708;2023-02-28T00:25:10;2.50;99.90
28438;DHT22;15667;52.376;9.708;2023-02-28T00:27:38;2.30;99.90
28438;DHT22;15667;52.376;9.708;2023-02-28T00:30:05;2.30;99.90
28438;DHT22;15667;52.376;9.708;2023-02-28T00:32:32;2.30;99.90
28438;DHT22;15667;52.376;9.708;2023-02-28T00:34:59;2.30;99.90
28438;DHT22;15667;52.376;9.708;2023-02-28T00:37:25;2.30;99.90
28438;DHT22;15667;52.376;9.708;2023-02-28T00:39:51;2.20;99.90
28438;DHT22;15667;52.376;9.708;2023-02-28T00:42:16;3.20;99.90
28438;DHT22;15667;52.376;9.708;2023-02-28T00:44:42;2.70;99.90
28438;DHT22;15667;52.376;9.708;2023-02-28T00:47:08;2.30;99.90
28438;DHT22;15667;52.376;9.708;2023-02-28T00:49:33;2.30;99.90
28438;DHT22;15667;52.376;9.708;2023-02-28T00:51:59;2.30;99.90
28438;DHT22;15667;52.376;9.708;2023-02-28T00:54:25;3.30;99.90
28438;DHT22;15667;52.376;9.708;2023-02-28T00:56:51;2.30;99.90
28438;DHT22;15667;52.376;9.708;2023-02-28T00:59:17;2.20;99.90
28438;DHT22;15667;52.376;9.708;2023-02-28T01:01:44;2.20;99.90
28438;DHT22;15667;52.376;9.708;2023-02-28T01:04:10;2.20;99.90
28438;DHT22;15667;52.376;9.708;2023-02-28T01:06:39;2.20;99.90
28438;DHT22;15667;52.376;9.708;2023-02-28T01:09:06;2.10;99.90
28438;DHT22;15667;52.376;9.708;2023-02-28T01:11:32;2.10;99.90
28438;DHT22;15667;52.376;9.708;2023-02-28T01:13:58;2.10;99.90
28438;DHT22;15667;52.376;9.708;2023-02-28T01:16:24;2.00;99.90
28438;DHT22;15667;52.376;9.708;2023-02-28T01:18:50;1.90;99.90
28438;DHT22;15667;52.376;9.708;2023-02-28T01:21:17;1.90;99.90
28438;DHT22;15667;52.376;9.708;2023-02-28T01:23:43;1.70;99.90
28438;DHT22;15667;52.376;9.708;2023-02-28T01:26:15;1.70;99.90
28438;DHT22;15667;52.376;9.708;2023-02-28T01:28:41;1.70;99.90
28438;DHT22;15667;52.376;9.708;2023-02-28T01:31:08;1.60;99.90
28438;DHT22;15667;52.376;9.708;2023-02-28T01:33:33;1.60;99.90
28438;DHT22;15667;52.376;9.708;2023-02-28T01:36:04;1.50;99.90
28438;DHT22;15667;52.376;9.708;2023-02-28T01:38:31;1.40;99.90
28438;DHT22;15667;52.376;9.708;2023-02-28T01:40:57;2.20;99.90
28438;DHT22;15667;52.376;9.708;2023-02-28T01:43:32;1.40;99.90
28438;DHT22;15667;52.376;9.708;2023-02-28T01:46:13;1.30;99.90
28438;DHT22;15667;52.376;9.708;2023-02-28T01:49:04;1.60;99.90
28438;DHT22;15667;52.376;9.708;2023-02-28T01:54:07;1.10;99.90
28438;DHT22;15667;52.376;9.708;2023-02-28T01:56:42;1.20;99.90
28438;DHT22;15667;52.376;9.708;2023-02-28T01:59:09;1.20;99.90
28438;DHT22;15667;52.376;9.708;2023-02-28T02:01:35;1.10;99.90
28438;DHT22;15667;52.376;9.708;2023-02-28T02:04:02;1.10;99.90
28438;DHT22;15667;52.376;9.708;2023-02-28T02:06:34;1.10;99.90
28438;DHT22;15667;52.376;9.708;2023-02-28T02:09:01;1.20;99.90
28438;DHT22;15667;52.376;9.708;2023-02-28T02:11:27;1.00;99.90
28438;DHT22;15667;52.376;9.708;2023-02-28T02:16:37;1.40;99.90
28438;DHT22;15667;52.376;9.708;2023-02-28T02:36:21;0.70;99.90
28438;DHT22;15667;52.376;9.708;2023-02-28T02:41:33;0.70;99.90
28438;DHT22;15667;52.376;9.708;2023-02-28T02:44:20;0.60;99.90
28438;DHT22;15667;52.376;9.708;2023-02-28T02:46:48;0.50;99.90
28438;DHT22;15667;52.376;9.708;2023-02-28T02:49:30;0.50;99.90
28438;DHT22;15667;52.376;9.708;2023-02-28T02:52:00;0.50;99.90
28438;DHT22;15667;52.376;9.708;2023-02-28T02:54:33;1.20;99.90
28438;DHT22;15667;52.376;9.708;2023-02-28T02:57:05;0.40;99.90
28438;DHT22;15667;52.376;9.708;2023-02-28T02:59:36;0.40;99.90
28438;DHT22;15667;52.376;9.708;2023-02-28T03:02:06;0.30;99.90
28438;DHT22;15667;52.376;9.708;2023-02-28T03:04:36;0.30;99.90
28438;DHT22;15667;52.376;9.708;2023-02-28T03:07:03;0.40;99.90
28438;DHT22;15667;52.376;9.708;2023-02-28T03:09:32;0.40;99.90
28438;DHT22;15667;52.376;9.708;2023-02-28T03:11:58;0.40;99.90
28438;DHT22;15667;52.376;9.708;2023-02-28T03:22:45;0.40;99.90
28438;DHT22;15667;52.376;9.708;2023-02-28T03:30:54;0.40;99.90
28438;DHT22;15667;52.376;9.708;2023-02-28T03:33:25;0.40;99.90
28438;DHT22;15667;52.376;9.708;2023-02-28T03:36:16;0.40;99.90
28438;DHT22;15667;52.376;9.708;2023-02-28T03:38:59;0.40;99.90
28438;DHT22;15667;52.376;9.708;2023-02-28T03:41:49;0.20;99.90
28438;DHT22;15667;52.376;9.708;2023-02-28T03:44:25;0.20;99.90
28438;DHT22;15667;52.376;9.708;2023-02-28T03:46:58;0.10;99.90
28438;DHT22;15667;52.376;9.708;2023-02-28T03:49:32;0.10;99.90
28438;DHT22;15667;52.376;9.708;2023-02-28T03:52:03;0.00;99.90
28438;DHT22;15667;52.376;9.708;2023-02-28T03:54:35;0.10;99.90
28438;DHT22;15667;52.376;9.708;2023-02-28T03:57:09;0.20;99.90
28438;DHT22;15667;52.376;9.708;2023-02-28T04:02:24;0.10;99.90
28438;DHT22;15667;52.376;9.708;2023-02-28T04:06:06;1.30;99.90
28438;DHT22;15667;52.376;9.708;2023-02-28T04:08:29;0.00;99.90
28438;DHT22;15667;52.376;9.708;2023-02-28T04:11:01;-0.10;99.90
28438;DHT22;15667;52.376;9.708;2023-02-28T04:13:28;0.90;99.90
28438;DHT22;15667;52.376;9.708;2023-02-28T04:15:54;-0.10;99.90
28438;DHT22;15667;52.376;9.708;2023-02-28T04:18:22;-0.10;99.90
28438;DHT22;15667;52.376;9.708;2023-02-28T04:20:48;1.40;99.90
28438;DHT22;15667;52.376;9.708;2023-02-28T04:23:14;0.80;99.90
28438;DHT22;15667;52.376;9.708;2023-02-28T04:25:40;0.00;99.90
28438;DHT22;15667;52.376;9.708;2023-02-28T04:28:08;-1.50;99.90
28438;DHT22;15667;52.376;9.708;2023-02-28T04:30:35;-0.20;99.90
28438;DHT22;15667;52.376;9.708;2023-02-28T04:33:01;-0.20;99.90
28438;DHT22;15667;52.376;9.708;2023-02-28T04:35:29;-1.50;99.90
28438;DHT22;15667;52.376;9.708;2023-02-28T04:37:55;-1.30;99.90
28438;DHT22;15667;52.376;9.708;2023-02-28T04:40:20;1.20;99.90
28438;DHT22;15667;52.376;9.708;2023-02-28T04:42:46;-0.20;99.90
28438;DHT22;15667;52.376;9.708;2023-02-28T04:45:12;1.40;99.90
28438;DHT22;15667;52.376;9.708;2023-02-28T04:47:38;-0.30;99.90
28438;DHT22;15667;52.376;9.708;2023-02-28T04:50:04;1.00;99.90
28438;DHT22;15667;52.376;9.708;2023-02-28T04:52:29;0.10;99.90
28438;DHT22;15667;52.376;9.708;2023-02-28T04:54:55;1.40;99.90
28438;DHT22;15667;52.376;9.708;2023-02-28T04:57:21;-0.20;99.90
28438;DHT22;15667;52.376;9.708;2023-02-28T04:59:47;-0.30;99.90
28438;DHT22;15667;52.376;9.708;2023-02-28T05:02:12;1.20;99.90
28438;DHT22;15667;52.376;9.708;2023-02-28T05:04:38;0.50;99.90
28438;DHT22;15667;52.376;9.708;2023-02-28T05:07:04;-0.30;99.90
28438;DHT22;15667;52.376;9.708;2023-02-28T05:09:29;-0.30;99.90
28438;DHT22;15667;52.376;9.708;2023-02-28T05:11:55;-0.40;99.90
28438;DHT22;15667;52.376;9.708;2023-02-28T05:14:21;-0.50;99.90
28438;DHT22;15667;52.376;9.708;2023-02-28T05:16:47;-0.50;99.90
28438;DHT22;15667;52.376;9.708;2023-02-28T05:19:12;0.30;99.90
28438;DHT22;15667;52.376;9.708;2023-02-28T05:21:51;-0.40;99.90
28438;DHT22;15667;52.376;9.708;2023-02-28T05:24:18;-0.40;99.90
28438;DHT22;15667;52.376;9.708;2023-02-28T05:26:50;-0.50;99.90
28438;DHT22;15667;52.376;9.708;2023-02-28T05:29:16;-0.10;99.90
28438;DHT22;15667;52.376;9.708;2023-02-28T05:31:42;0.00;99.90
28438;DHT22;15667;52.376;9.708;2023-02-28T05:34:08;-0.50;99.90
28438;DHT22;15667;52.376;9.708;2023-02-28T05:36:37;-0.40;99.90
28438;DHT22;15667;52.376;9.708;2023-02-28T05:39:03;3.10;99.90
28438;DHT22;15667;52.376;9.708;2023-02-28T05:41:28;1.10;99.90
28438;DHT22;15667;52.376;9.708;2023-02-28T05:43:54;1.20;99.90
28438;DHT22;15667;52.376;9.708;2023-02-28T05:46:20;0.00;99.90
28438;DHT22;15667;52.376;9.708;2023-02-28T05:48:54;-0.20;99.90
28438;DHT22;15667;52.376;9.708;2023-02-28T05:51:21;-1.40;99.90
28438;DHT22;15667;52.376;9.708;2023-02-28T05:53:46;-0.40;99.90
28438;DHT22;15667;52.376;9.708;2023-02-28T05:56:13;-0.50;99.90
28438;DHT22;15667;52.376;9.708;2023-02-28T05:58:39;0.90;99.90
28438;DHT22;15667;52.376;9.708;2023-02-28T06:03:55;-0.70;99.90
28438;DHT22;15667;52.376;9.708;2023-02-28T06:06:21;0.20;99.90
28438;DHT22;15667;52.376;9.708;2023-02-28T06:08:54;1.00;99.90
28438;DHT22;15667;52.376;9.708;2023-02-28T06:11:21;-1.90;99.90
28438;DHT22;15667;52.376;9.708;2023-02-28T06:13:55;-1.50;99.90
28438;DHT22;15667;52.376;9.708;2023-02-28T06:16:22;-0.60;99.90
28438;DHT22;15667;52.376;9.708;2023-02-28T06:18:48;-0.60;99.90
28438;DHT22;15667;52.376;9.708;2023-02-28T06:21:14;-0.60;99.90
28438;DHT22;15667;52.376;9.708;2023-02-28T06:23:39;0.50;99.90
28438;DHT22;15667;52.376;9.708;2023-02-28T06:26:05;-0.60;99.90
28438;DHT22;15667;52.376;9.708;2023-02-28T06:28:31;-0.20;99.90
28438;DHT22;15667;52.376;9.708;2023-02-28T06:30:58;-0.50;99.90
28438;DHT22;15667;52.376;9.708;2023-02-28T06:33:23;-0.70;99.90
28438;DHT22;15667;52.376;9.708;2023-02-28T06:35:53;-0.50;99.90
28438;DHT22;15667;52.376;9.708;2023-02-28T06:38:34;-0.50;99.90
28438;DHT22;15667;52.376;9.708;2023-02-28T06:41:37;-0.40;99.90
28438;DHT22;15667;52.376;9.708;2023-02-28T06:44:14;-0.40;99.90
28438;DHT22;15667;52.376;9.708;2023-02-28T06:46:47;1.20;99.90
28438;DHT22;15667;52.376;9.708;2023-02-28T06:49:13;-0.20;99.90
28438;DHT22;15667;52.376;9.708;2023-02-28T06:51:41;0.70;99.90
28438;DHT22;15667;52.376;9.708;2023-02-28T06:54:10;-0.10;99.90
28438;DHT22;15667;52.376;9.708;2023-02-28T06:56:36;-0.30;99.90
28438;DHT22;15667;52.376;9.708;2023-02-28T06:59:12;-0.30;99.90
28438;DHT22;15667;52.376;9.708;2023-02-28T07:01:39;-0.10;99.90
28438;DHT22;15667;52.376;9.708;2023-02-28T07:04:05;-0.10;99.90
28438;DHT22;15667;52.376;9.708;2023-02-28T07:06:31;-0.10;99.90
28438;DHT22;15667;52.376;9.708;2023-02-28T07:08:57;-0.10;99.90
28438;DHT22;15667;52.376;9.708;2023-02-28T07:11:25;0.00;99.90
28438;DHT22;15667;52.376;9.708;2023-02-28T07:13:55;0.00;99.90
28438;DHT22;15667;52.376;9.708;2023-02-28T07:16:21;0.10;99.90
28438;DHT22;15667;52.376;9.708;2023-02-28T07:18:48;0.20;99.90
28438;DHT22;15667;52.376;9.708;2023-02-28T07:21:14;1.60;99.90
28438;DHT22;15667;52.376;9.708;2023-02-28T07:23:40;1.30;99.90
28438;DHT22;15667;52.376;9.708;2023-02-28T07:26:11;0.10;99.90
28438;DHT22;15667;52.376;9.708;2023-02-28T07:28:38;-0.20;99.90
28438;DHT22;15667;52.376;9.708;2023-02-28T07:31:08;0.40;99.90
28438;DHT22;15667;52.376;9.708;2023-02-28T07:33:34;0.30;99.90
28438;DHT22;15667;52.376;9.708;2023-02-28T07:36:05;0.10;99.90
28438;DHT22;15667;52.376;9.708;2023-02-28T07:38:34;0.20;99.90
28438;DHT22;15667;52.376;9.708;2023-02-28T07:41:00;0.40;99.90
28438;DHT22;15667;52.376;9.708;2023-02-28T07:43:25;0.40;99.90
28438;DHT22;15667;52.376;9.708;2023-02-28T07:45:51;0.60;99.90
28438;DHT22;15667;52.376;9.708;2023-02-28T07:48:16;0.60;99.90
28438;DHT22;15667;52.376;9.708;2023-02-28T07:50:54;1.80;99.90
28438;DHT22;15667;52.376;9.708;2023-02-28T07:53:20;0.70;99.90
28438;DHT22;15667;52.376;9.708;2023-02-28T07:55:46;1.00;99.90
28438;DHT22;15667;52.376;9.708;2023-02-28T07:58:11;0.90;99.90
28438;DHT22;15667;52.376;9.708;2023-02-28T08:00:37;1.10;99.90
28438;DHT22;15667;52.376;9.708;2023-02-28T08:03:03;1.20;99.90
28438;DHT22;15667;52.376;9.708;2023-02-28T08:05:29;1.40;99.90
28438;DHT22;15667;52.376;9.708;2023-02-28T08:07:56;3.00;99.90
28438;DHT22;15667;52.376;9.708;2023-02-28T08:10:22;1.70;99.90
28438;DHT22;15667;52.376;9.708;2023-02-28T08:12:49;1.80;99.90
28438;DHT22;15667;52.376;9.708;2023-02-28T08:15:14;1.90;99.90
28438;DHT22;15667;52.376;9.708;2023-02-28T08:17:40;2.00;99.90
28438;DHT22;15667;52.376;9.708;2023-02-28T08:20:07;2.10;99.90
28438;DHT22;15667;52.376;9.708;2023-02-28T08:22:32;2.30;99.90
28438;DHT22;15667;52.376;9.708;2023-02-28T08:24:58;2.40;99.90
28438;DHT22;15667;52.376;9.708;2023-02-28T08:27:23;2.60;99.90
28438;DHT22;15667;52.376;9.708;2023-02-28T08:29:49;2.80;99.90
28438;DHT22;15667;52.376;9.708;2023-02-28T08:32:16;3.40;99.90
28438;DHT22;15667;52.376;9.708;2023-02-28T08:34:42;2.90;99.90
28438;DHT22;15667;52.376;9.708;2023-02-28T08:37:07;4.90;99.90
28438;DHT22;15667;52.376;9.708;2023-02-28T08:39:36;5.00;99.90
28438;DHT22;15667;52.376;9.708;2023-02-28T08:42:03;3.70;99.90
28438;DHT22;15667;52.376;9.708;2023-02-28T08:44:29;3.80;99.90
28438;DHT22;15667;52.376;9.708;2023-02-28T08:46:54;4.20;99.90
28438;DHT22;15667;52.376;9.708;2023-02-28T08:49:20;4.90;99.90
28438;DHT22;15667;52.376;9.708;2023-02-28T08:51:46;5.30;99.90
28438;DHT22;15667;52.376;9.708;2023-02-28T08:54:11;4.80;99.90
28438;DHT22;15667;52.376;9.708;2023-02-28T08:56:45;4.20;99.90
28438;DHT22;15667;52.376;9.708;2023-02-28T08:59:12;3.80;99.90
28438;DHT22;15667;52.376;9.708;2023-02-28T09:01:38;4.20;99.90
28438;DHT22;15667;52.376;9.708;2023-02-28T09:04:03;4.60;99.90
28438;DHT22;15667;52.376;9.708;2023-02-28T09:06:29;4.80;99.90
28438;DHT22;15667;52.376;9.708;2023-02-28T09:08:58;5.10;99.90
28438;DHT22;15667;52.376;9.708;2023-02-28T09:11:25;5.40;99.90
28438;DHT22;15667;52.376;9.708;2023-02-28T09:13:52;5.00;99.90
28438;DHT22;15667;52.376;9.708;2023-02-28T09:16:18;4.90;99.90
28438;DHT22;15667;52.376;9.708;2023-02-28T09:18:44;4.90;99.90
28438;DHT22;15667;52.376;9.708;2023-02-28T09:21:12;5.80;99.90
28438;DHT22;15667;52.376;9.708;2023-02-28T09:23:40;4.50;99.90
28438;DHT22;15667;52.376;9.708;2023-02-28T09:26:06;5.00;99.90
28438;DHT22;15667;52.376;9.708;2023-02-28T09:28:32;5.20;99.90
28438;DHT22;15667;52.376;9.708;2023-02-28T09:30:58;4.50;99.90
28438;DHT22;15667;52.376;9.708;2023-02-28T09:33:25;5.70;99.90
28438;DHT22;15667;52.376;9.708;2023-02-28T09:35:57;4.80;99.90
28438;DHT22;15667;52.376;9.708;2023-02-28T09:38:23;4.70;99.90
28438;DHT22;15667;52.376;9.708;2023-02-28T09:40:53;5.90;99.90
28438;DHT22;15667;52.376;9.708;2023-02-28T09:43:23;6.30;99.90
28438;DHT22;15667;52.376;9.708;2023-02-28T09:48:44;6.00;99.90
28438;DHT22;15667;52.376;9.708;2023-02-28T09:51:26;6.60;99.90
28438;DHT22;15667;52.376;9.708;2023-02-28T09:53:53;6.60;99.90
28438;DHT22;15667;52.376;9.708;2023-02-28T09:56:26;6.90;99.90
28438;DHT22;15667;52.376;9.708;2023-02-28T09:59:04;7.00;99.90
28438;DHT22;15667;52.376;9.708;2023-02-28T10:01:34;7.50;99.90
28438;DHT22;15667;52.376;9.708;2023-02-28T10:06:48;8.20;99.90
28438;DHT22;15667;52.376;9.708;2023-02-28T10:09:23;8.10;99.90
28438;DHT22;15667;52.376;9.708;2023-02-28T10:11:54;6.50;99.90
28438;DHT22;15667;52.376;9.708;2023-02-28T10:14:24;5.90;99.90
28438;DHT22;15667;52.376;9.708;2023-02-28T10:19:49;5.30;99.90
28438;DHT22;15667;52.376;9.708;2023-02-28T10:22:34;6.20;99.90
28438;DHT22;15667;52.376;9.708;2023-02-28T10:25:05;5.00;99.90
28438;DHT22;15667;52.376;9.708;2023-02-28T10:27:32;5.30;99.90
28438;DHT22;15667;52.376;9.708;2023-02-28T10:30:00;5.00;99.90
28438;DHT22;15667;52.376;9.708;2023-02-28T10:32:36;5.00;99.90
28438;DHT22;15667;52.376;9.708;2023-02-28T10:37:38;5.00;99.90
28438;DHT22;15667;52.376;9.708;2023-02-28T10:40:06;5.00;99.90
28438;DHT22;15667;52.376;9.708;2023-02-28T10:42:34;4.80;99.90
28438;DHT22;15667;52.376;9.708;2023-02-28T10:45:12;4.80;99.90
28438;DHT22;15667;52.376;9.708;2023-02-28T10:47:55;4.70;99.90
28438;DHT22;15667;52.376;9.708;2023-02-28T10:50:34;4.50;99.90
28438;DHT22;15667;52.376;9.708;2023-02-28T10:58:55;4.50;99.90
28438;DHT22;15667;52.376;9.708;2023-02-28T11:01:40;4.60;99.90
28438;DHT22;15667;52.376;9.708;2023-02-28T11:07:20;4.50;99.90
28438;DHT22;15667;52.376;9.708;2023-02-28T11:09:50;4.40;99.90
28438;DHT22;15667;52.376;9.708;2023-02-28T11:12:36;4.40;99.90
28438;DHT22;15667;52.376;9.708;2023-02-28T11:15:06;6.00;99.90
28438;DHT22;15667;52.376;9.708;2023-02-28T11:17:44;4.50;99.90
28438;DHT22;15667;52.376;9.708;2023-02-28T11:20:19;4.50;99.90
28438;DHT22;15667;52.376;9.708;2023-02-28T11:22:46;4.50;99.90
28438;DHT22;15667;52.376;9.708;2023-02-28T11:25:33;4.60;99.90
28438;DHT22;15667;52.376;9.708;2023-02-28T11:28:03;4.60;99.90
28438;DHT22;15667;52.376;9.708;2023-02-28T11:30:39;4.70;99.90
28438;DHT22;15667;52.376;9.708;2023-02-28T11:35:55;5.00;99.90
28438;DHT22;15667;52.376;9.708;2023-02-28T11:38:26;5.20;99.90
28438;DHT22;15667;52.376;9.708;2023-02-28T11:40:59;5.30;99.90
28438;DHT22;15667;52.376;9.708;2023-02-28T11:46:33;5.30;99.90
28438;DHT22;15667;52.376;9.708;2023-02-28T11:54:35;5.30;99.90
28438;DHT22;15667;52.376;9.708;2023-02-28T12:03:04;6.40;99.90
28438;DHT22;15667;52.376;9.708;2023-02-28T12:05:57;6.00;99.90
28438;DHT22;15667;52.376;9.708;2023-02-28T12:16:33;4.90;99.90
28438;DHT22;15667;52.376;9.708;2023-02-28T12:19:35;5.00;99.90
28438;DHT22;15667;52.376;9.708;2023-02-28T12:22:35;4.80;99.90
28438;DHT22;15667;52.376;9.708;2023-02-28T12:25:19;5.00;99.90
28438;DHT22;15667;52.376;9.708;2023-02-28T12:27:48;4.70;99.90
28438;DHT22;15667;52.376;9.708;2023-02-28T12:30:35;5.20;99.90
28438;DHT22;15667;52.376;9.708;2023-02-28T12:33:08;6.40;99.90
28438;DHT22;15667;52.376;9.708;2023-02-28T12:35:56;5.30;99.90
28438;DHT22;15667;52.376;9.708;2023-02-28T12:38:41;5.50;99.90
28438;DHT22;15667;52.376;9.708;2023-02-28T12:41:24;5.60;99.90
28438;DHT22;15667;52.376;9.708;2023-02-28T12:43:58;5.60;99.90
28438;DHT22;15667;52.376;9.708;2023-02-28T12:46:32;5.50;99.90
28438;DHT22;15667;52.376;9.708;2023-02-28T12:51:37;5.30;99.90
28438;DHT22;15667;52.376;9.708;2023-02-28T12:57:14;5.50;99.90
28438;DHT22;15667;52.376;9.708;2023-02-28T13:06:22;5.30;99.90
28438;DHT22;15667;52.376;9.708;2023-02-28T13:11:42;5.50;99.90
28438;DHT22;15667;52.376;9.708;2023-02-28T13:14:35;5.60;99.90
28438;DHT22;15667;52.376;9.708;2023-02-28T13:25:01;6.10;99.90
28438;DHT22;15667;52.376;9.708;2023-02-28T13:27:40;6.10;99.90
28438;DHT22;15667;52.376;9.708;2023-02-28T13:34:14;6.40;99.90
28438;DHT22;15667;52.376;9.708;2023-02-28T13:44:13;7.80;99.90
28438;DHT22;15667;52.376;9.708;2023-02-28T13:49:26;8.80;99.90
28438;DHT22;15667;52.376;9.708;2023-02-28T13:54:45;9.70;99.90
28438;DHT22;15667;52.376;9.708;2023-02-28T13:57:20;11.20;99.90
28438;DHT22;15667;52.376;9.708;2023-02-28T14:05:37;10.20;99.90
28438;DHT22;15667;52.376;9.708;2023-02-28T14:10:36;10.50;99.90
28438;DHT22;15667;52.376;9.708;2023-02-28T14:15:49;10.50;99.90
28438;DHT22;15667;52.376;9.708;2023-02-28T14:18:55;10.60;99.90
28438;DHT22;15667;52.376;9.708;2023-02-28T14:21:25;9.50;99.90
28438;DHT22;15667;52.376;9.708;2023-02-28T14:37:30;7.80;99.90
28438;DHT22;15667;52.376;9.708;2023-02-28T14:39:59;7.80;99.90
28438;DHT22;15667;52.376;9.708;2023-02-28T14:42:37;7.70;99.90
28438;DHT22;15667;52.376;9.708;2023-02-28T14:45:03;7.80;99.90
28438;DHT22;15667;52.376;9.708;2023-02-28T14:47:35;7.50;99.90
28438;DHT22;15667;52.376;9.708;2023-02-28T14:50:38;7.60;99.90
28438;DHT22;15667;52.376;9.708;2023-02-28T14:53:59;6.10;99.90
28438;DHT22;15667;52.376;9.708;2023-02-28T14:56:37;6.60;99.90
28438;DHT22;15667;52.376;9.708;2023-02-28T14:59:05;7.30;99.90
28438;DHT22;15667;52.376;9.708;2023-02-28T15:01:50;7.10;99.90
28438;DHT22;15667;52.376;9.708;2023-02-28T15:04:27;6.90;99.90
28438;DHT22;15667;52.376;9.708;2023-02-28T15:07:14;6.70;99.90
28438;DHT22;15667;52.376;9.708;2023-02-28T15:09:41;6.30;99.90
28438;DHT22;15667;52.376;9.708;2023-02-28T15:12:29;6.20;99.90
28438;DHT22;15667;52.376;9.708;2023-02-28T15:15:18;6.30;99.90
28438;DHT22;15667;52.376;9.708;2023-02-28T15:17:49;7.60;99.90
28438;DHT22;15667;52.376;9.708;2023-02-28T15:20:19;5.90;99.90
28438;DHT22;15667;52.376;9.708;2023-02-28T15:22:46;5.70;99.90
28438;DHT22;15667;52.376;9.708;2023-02-28T15:25:17;5.70;99.90
28438;DHT22;15667;52.376;9.708;2023-02-28T15:27:52;6.40;99.90
28438;DHT22;15667;52.376;9.708;2023-02-28T15:30:19;5.60;99.90
28438;DHT22;15667;52.376;9.708;2023-02-28T15:33:18;5.70;99.90
28438;DHT22;15667;52.376;9.708;2023-02-28T15:35:44;5.60;99.90
28438;DHT22;15667;52.376;9.708;2023-02-28T15:38:27;5.60;99.90
28438;DHT22;15667;52.376;9.708;2023-02-28T15:40:57;5.50;99.90
28438;DHT22;15667;52.376;9.708;2023-02-28T15:43:30;5.50;99.90
28438;DHT22;15667;52.376;9.708;2023-02-28T15:48:34;5.30;99.90
28438;DHT22;15667;52.376;9.708;2023-02-28T15:51:33;5.30;99.90
28438;DHT22;15667;52.376;9.708;2023-02-28T15:54:02;5.20;99.90
28438;DHT22;15667;52.376;9.708;2023-02-28T15:56:53;5.30;99.90
28438;DHT22;15667;52.376;9.708;2023-02-28T15:59:24;5.30;99.90
28438;DHT22;15667;52.376;9.708;2023-02-28T16:02:13;5.30;99.90
28438;DHT22;15667;52.376;9.708;2023-02-28T16:07:38;5.20;99.90
28438;DHT22;15667;52.376;9.708;2023-02-28T16:10:06;5.20;99.90
28438;DHT22;15667;52.376;9.708;2023-02-28T16:12:34;5.20;99.90
28438;DHT22;15667;52.376;9.708;2023-02-28T16:15:07;5.20;99.90
28438;DHT22;15667;52.376;9.708;2023-02-28T16:17:35;5.10;99.90
28438;DHT22;15667;52.376;9.708;2023-02-28T16:20:15;5.20;99.90
28438;DHT22;15667;52.376;9.708;2023-02-28T16:22:42;4.90;99.90
28438;DHT22;15667;52.376;9.708;2023-02-28T16:25:14;4.90;99.90
28438;DHT22;15667;52.376;9.708;2023-02-28T16:27:41;5.90;99.90
28438;DHT22;15667;52.376;9.708;2023-02-28T16:30:20;4.90;99.90
28438;DHT22;15667;52.376;9.708;2023-02-28T16:32:47;4.80;99.90
28438;DHT22;15667;52.376;9.708;2023-02-28T16:35:13;6.10;99.90
28438;DHT22;15667;52.376;9.708;2023-02-28T16:37:39;4.80;99.90
28438;DHT22;15667;52.376;9.708;2023-02-28T16:40:06;4.70;99.90
28438;DHT22;15667;52.376;9.708;2023-02-28T16:42:33;4.70;99.90
28438;DHT22;15667;52.376;9.708;2023-02-28T16:44:58;5.50;99.90
28438;DHT22;15667;52.376;9.708;2023-02-28T16:47:24;6.40;99.90
28438;DHT22;15667;52.376;9.708;2023-02-28T16:49:52;4.60;99.90
28438;DHT22;15667;52.376;9.708;2023-02-28T16:52:17;5.80;99.90
28438;DHT22;15667;52.376;9.708;2023-02-28T16:54:43;5.00;99.90
28438;DHT22;15667;52.376;9.708;2023-02-28T16:57:22;5.60;99.90
28438;DHT22;15667;52.376;9.708;2023-02-28T16:59:49;4.50;99.90
28438;DHT22;15667;52.376;9.708;2023-02-28T17:02:17;4.60;99.90
28438;DHT22;15667;52.376;9.708;2023-02-28T17:04:44;6.10;99.90
28438;DHT22;15667;52.376;9.708;2023-02-28T17:07:12;4.50;99.90
28438;DHT22;15667;52.376;9.708;2023-02-28T17:09:38;4.40;99.90
28438;DHT22;15667;52.376;9.708;2023-02-28T17:12:10;4.40;99.90
28438;DHT22;15667;52.376;9.708;2023-02-28T17:14:37;4.50;99.90
28438;DHT22;15667;52.376;9.708;2023-02-28T17:17:05;6.00;99.90
28438;DHT22;15667;52.376;9.708;2023-02-28T17:19:31;5.80;99.90
28438;DHT22;15667;52.376;9.708;2023-02-28T17:21:56;5.00;99.90
28438;DHT22;15667;52.376;9.708;2023-02-28T17:24:22;5.60;99.90
28438;DHT22;15667;52.376;9.708;2023-02-28T17:26:48;5.20;99.90
28438;DHT22;15667;52.376;9.708;2023-02-28T17:29:19;5.40;99.90
28438;DHT22;15667;52.376;9.708;2023-02-28T17:31:45;4.20;99.90
28438;DHT22;15667;52.376;9.708;2023-02-28T17:34:11;4.10;99.90
28438;DHT22;15667;52.376;9.708;2023-02-28T17:37:00;4.10;99.90
28438;DHT22;15667;52.376;9.708;2023-02-28T17:40:05;4.00;99.90
28438;DHT22;15667;52.376;9.708;2023-02-28T17:42:50;4.00;99.90
28438;DHT22;15667;52.376;9.708;2023-02-28T17:45:17;5.10;99.90
28438;DHT22;15667;52.376;9.708;2023-02-28T17:47:46;5.30;99.90
28438;DHT22;15667;52.376;9.708;2023-02-28T17:50:15;3.90;99.90
28438;DHT22;15667;52.376;9.708;2023-02-28T17:52:41;5.10;99.90
28438;DHT22;15667;52.376;9.708;2023-02-28T17:55:08;3.70;99.90
28438;DHT22;15667;52.376;9.708;2023-02-28T17:57:33;3.90;99.90
28438;DHT22;15667;52.376;9.708;2023-02-28T17:59:59;3.80;99.90
28438;DHT22;15667;52.376;9.708;2023-02-28T18:02:24;3.80;99.90
28438;DHT22;15667;52.376;9.708;2023-02-28T18:04:52;5.30;99.90
28438;DHT22;15667;52.376;9.708;2023-02-28T18:07:19;3.70;99.90
28438;DHT22;15667;52.376;9.708;2023-02-28T18:09:45;5.30;99.90
28438;DHT22;15667;52.376;9.708;2023-02-28T18:12:11;3.70;99.90
28438;DHT22;15667;52.376;9.708;2023-02-28T18:14:40;3.70;99.90
28438;DHT22;15667;52.376;9.708;2023-02-28T18:17:06;4.00;99.90
28438;DHT22;15667;52.376;9.708;2023-02-28T18:19:31;4.20;99.90
28438;DHT22;15667;52.376;9.708;2023-02-28T18:50:33;3.00;99.90
28438;DHT22;15667;52.376;9.708;2023-02-28T18:52:58;3.00;99.90
28438;DHT22;15667;52.376;9.708;2023-02-28T18:55:33;3.70;99.90
28438;DHT22;15667;52.376;9.708;2023-02-28T18:58:05;2.60;99.90
28438;DHT22;15667;52.376;9.708;2023-02-28T19:00:34;3.60;99.90
28438;DHT22;15667;52.376;9.708;2023-02-28T19:03:00;4.30;99.90
28438;DHT22;15667;52.376;9.708;2023-02-28T19:05:26;2.70;99.90
28438;DHT22;15667;52.376;9.708;2023-02-28T19:07:59;1.80;99.90
28438;DHT22;15667;52.376;9.708;2023-02-28T19:10:25;4.00;99.90
28438;DHT22;15667;52.376;9.708;2023-02-28T19:12:51;1.20;99.90
28438;DHT22;15667;52.376;9.708;2023-02-28T19:15:20;2.60;99.90
28438;DHT22;15667;52.376;9.708;2023-02-28T19:17:46;2.90;99.90
28438;DHT22;15667;52.376;9.708;2023-02-28T19:20:12;3.30;99.90
28438;DHT22;15667;52.376;9.708;2023-02-28T19:22:38;1.20;99.90